createdAt,value
2022-09-27T00:01:19.047Z,10.17
2022-09-27T00:03:47.532Z,10.37
2022-09-27T00:06:21.878Z,9.90
2022-09-27T00:08:50.327Z,10.10
2022-09-27T00:11:27.368Z,9.87
2022-09-27T00:13:56.383Z,10.20
2022-09-27T00:16:28.416Z,10.50
2022-09-27T00:19:01.127Z,9.67
2022-09-27T00:21:30.815Z,10.27
2022-09-27T00:24:00.125Z,10.40
2022-09-27T00:26:29.312Z,9.90
2022-09-27T00:28:57.816Z,10.57
2022-09-27T00:31:30.712Z,10.10
2022-09-27T00:34:01.590Z,10.00
2022-09-27T00:36:31.509Z,10.07
2022-09-27T00:39:01.868Z,10.00
2022-09-27T00:41:33.224Z,10.30
2022-09-27T00:44:04.590Z,10.13
2022-09-27T00:46:40.856Z,10.47
2022-09-27T00:49:20.675Z,10.20
2022-09-27T00:51:57.219Z,10.27
2022-09-27T00:54:27.652Z,10.20
2022-09-27T00:56:57.628Z,10.03
2022-09-27T00:59:30.387Z,9.90
2022-09-27T01:02:00.404Z,9.90
2022-09-27T01:04:31.189Z,9.93
2022-09-27T01:07:00.005Z,10.20
2022-09-27T01:09:29.730Z,10.23
2022-09-27T01:12:09.911Z,10.00
2022-09-27T01:15:05.542Z,10.30
2022-09-27T01:17:53.004Z,11.10
2022-09-27T01:21:02.715Z,10.33
2022-09-27T01:23:54.750Z,10.10
2022-09-27T01:26:44.059Z,10.20
2022-09-27T01:29:18.929Z,10.20
2022-09-27T01:31:56.564Z,10.07
2022-09-27T01:34:32.320Z,10.97
2022-09-27T01:37:11.676Z,10.00
2022-09-27T01:39:50.864Z,10.37
2022-09-27T01:42:40.325Z,10.03
2022-09-27T01:45:16.146Z,10.20
2022-09-27T01:47:59.178Z,10.23
2022-09-27T01:50:54.436Z,9.70
2022-09-27T01:53:26.965Z,10.03
2022-09-27T01:56:16.130Z,9.93
2022-09-27T01:59:02.001Z,10.20
2022-09-27T02:01:34.573Z,13.00
2022-09-27T02:04:06.748Z,10.20
2022-09-27T02:07:01.112Z,10.10
2022-09-27T02:09:38.881Z,10.03
2022-09-27T02:12:24.649Z,9.90
2022-09-27T02:14:58.576Z,10.00
2022-09-27T02:17:39.192Z,10.17
2022-09-27T02:20:18.572Z,9.83
2022-09-27T02:23:00.316Z,10.17
2022-09-27T02:25:36.249Z,10.23
2022-09-27T02:28:18.132Z,10.13
2022-09-27T02:30:47.119Z,10.27
2022-09-27T02:33:27.354Z,10.13
2022-09-27T02:35:57.319Z,10.40
2022-09-27T02:38:25.868Z,10.57
2022-09-27T02:40:55.574Z,10.20
2022-09-27T02:43:29.322Z,10.07
2022-09-27T02:46:16.423Z,10.10
2022-09-27T02:48:56.976Z,10.40
2022-09-27T02:51:45.050Z,10.10
2022-09-27T02:54:24.909Z,10.53
2022-09-27T02:57:24.104Z,10.13
2022-09-27T03:00:18.174Z,9.73
2022-09-27T03:03:08.139Z,10.00
2022-09-27T03:05:46.630Z,10.07
2022-09-27T03:08:17.249Z,10.03
2022-09-27T03:10:45.871Z,9.83
2022-09-27T03:13:14.623Z,10.00
2022-09-27T03:15:43.979Z,9.90
2022-09-27T03:18:31.480Z,9.93
2022-09-27T03:21:18.084Z,10.07
2022-09-27T03:23:47.853Z,10.00
2022-09-27T03:26:16.263Z,9.50
2022-09-27T03:28:44.663Z,10.00
2022-09-27T03:31:13.413Z,10.03
2022-09-27T03:34:05.108Z,10.17
2022-09-27T03:36:33.570Z,10.43
2022-09-27T03:39:03.618Z,10.47
2022-09-27T03:41:32.015Z,10.43
2022-09-27T03:44:00.423Z,10.20
2022-09-27T03:46:28.921Z,9.73
2022-09-27T03:48:57.342Z,9.70
2022-09-27T03:51:25.916Z,10.17
2022-09-27T03:53:54.515Z,10.00
2022-09-27T03:56:24.424Z,10.10
2022-09-27T03:58:52.942Z,10.17
2022-09-27T04:01:21.795Z,10.03
2022-09-27T04:03:55.711Z,10.00
2022-09-27T04:06:34.955Z,9.90
2022-09-27T04:09:04.712Z,10.00
2022-09-27T04:11:52.523Z,10.40
2022-09-27T04:14:21.036Z,9.90
2022-09-27T04:17:09.554Z,10.33
2022-09-27T04:19:54.428Z,10.33
2022-09-27T04:22:23.706Z,10.10
2022-09-27T04:24:52.331Z,10.27
2022-09-27T04:27:31.076Z,9.97
2022-09-27T04:29:59.633Z,10.00
2022-09-27T04:32:57.311Z,9.83
2022-09-27T04:36:01.897Z,10.13
2022-09-27T04:38:30.619Z,9.80
2022-09-27T04:41:02.186Z,9.70
2022-09-27T04:43:36.200Z,9.67
2022-09-27T04:46:05.896Z,9.50
2022-09-27T04:48:34.482Z,9.80
2022-09-27T04:51:05.419Z,10.13
2022-09-27T04:53:34.492Z,10.00
2022-09-27T04:56:06.749Z,9.63
2022-09-27T04:58:37.583Z,10.23
2022-09-27T05:01:07.726Z,10.33
2022-09-27T05:04:02.064Z,9.90
2022-09-27T05:06:31.803Z,9.70
2022-09-27T05:09:07.093Z,10.07
2022-09-27T05:11:49.043Z,10.40
2022-09-27T05:14:18.819Z,10.23
2022-09-27T05:17:16.332Z,10.40
2022-09-27T05:20:04.039Z,10.13
2022-09-27T05:22:42.609Z,9.63
2022-09-27T05:25:11.491Z,10.17
2022-09-27T05:27:40.907Z,9.70
2022-09-27T05:30:12.306Z,9.70
2022-09-27T05:32:50.264Z,10.30
2022-09-27T05:35:47.686Z,9.70
2022-09-27T05:38:16.323Z,10.27
2022-09-27T05:40:51.084Z,10.10
2022-09-27T05:43:20.077Z,9.67
2022-09-27T05:45:51.421Z,10.50
2022-09-27T05:48:21.140Z,10.50
2022-09-27T05:51:03.220Z,10.60
2022-09-27T05:53:32.900Z,10.63
2022-09-27T05:56:05.091Z,10.57
2022-09-27T05:58:53.645Z,10.90
2022-09-27T06:01:24.114Z,10.00
2022-09-27T06:04:22.359Z,10.03
2022-09-27T06:07:16.243Z,10.07
2022-09-27T06:09:45.052Z,9.80
2022-09-27T06:12:14.604Z,9.73
2022-09-27T06:14:43.151Z,10.17
2022-09-27T06:17:38.119Z,9.87
2022-09-27T06:20:15.059Z,10.70
2022-09-27T06:22:43.509Z,9.97
2022-09-27T06:25:12.129Z,10.30
2022-09-27T06:28:04.411Z,9.90
2022-09-27T06:30:41.198Z,10.33
2022-09-27T06:33:21.719Z,9.70
2022-09-27T06:35:53.464Z,9.57
2022-09-27T06:38:22.281Z,10.10
2022-09-27T06:41:03.554Z,10.33
2022-09-27T06:43:40.353Z,9.83
2022-09-27T06:46:34.708Z,9.87
2022-09-27T06:49:25.561Z,9.93
2022-09-27T06:51:54.824Z,9.53
2022-09-27T06:54:24.348Z,10.17
2022-09-27T06:56:52.772Z,10.20
2022-09-27T06:59:38.849Z,9.93
2022-09-27T07:02:27.621Z,10.20
2022-09-27T07:05:27.518Z,10.30
2022-09-27T07:08:08.691Z,9.93
2022-09-27T07:10:38.046Z,10.13
2022-09-27T07:13:08.093Z,10.20
2022-09-27T07:15:37.475Z,10.03
2022-09-27T07:18:10.585Z,9.67
2022-09-27T07:20:41.695Z,10.17
2022-09-27T07:23:12.149Z,9.87
2022-09-27T07:25:40.645Z,9.77
2022-09-27T07:28:19.633Z,9.60
2022-09-27T07:30:50.826Z,9.77
2022-09-27T07:33:19.313Z,10.10
2022-09-27T07:35:49.051Z,9.80
2022-09-27T07:38:17.603Z,9.63
2022-09-27T07:40:46.076Z,9.83
2022-09-27T07:43:14.912Z,9.77
2022-09-27T07:45:43.584Z,10.00
2022-09-27T07:48:38.465Z,9.47
2022-09-27T07:51:16.479Z,9.83
2022-09-27T07:53:51.065Z,9.87
2022-09-27T07:56:38.249Z,9.60
2022-09-27T07:59:08.902Z,9.77
2022-09-27T08:01:37.702Z,9.70
2022-09-27T08:04:06.345Z,9.70
2022-09-27T08:06:36.901Z,9.63
2022-09-27T08:09:09.846Z,9.10
2022-09-27T08:11:39.758Z,9.70
2022-09-27T08:14:11.700Z,9.30
2022-09-27T08:16:42.795Z,9.60
2022-09-27T08:19:38.491Z,9.60
2022-09-27T08:22:19.066Z,9.60
2022-09-27T08:24:56.933Z,10.20
2022-09-27T08:27:42.685Z,9.87
2022-09-27T08:30:34.372Z,9.70
2022-09-27T08:33:03.974Z,9.57
2022-09-27T08:35:34.145Z,9.53
2022-09-27T08:38:06.079Z,9.47
2022-09-27T08:40:50.500Z,9.67
2022-09-27T08:43:35.180Z,9.20
2022-09-27T08:46:27.256Z,9.67
2022-09-27T08:49:06.010Z,9.53
2022-09-27T08:51:36.683Z,9.43
2022-09-27T08:54:09.904Z,9.43
2022-09-27T08:56:38.896Z,9.60
2022-09-27T08:59:15.099Z,9.80
2022-09-27T09:01:44.306Z,9.90
2022-09-27T09:04:29.760Z,9.70
2022-09-27T09:07:10.734Z,9.63
2022-09-27T09:09:54.031Z,10.00
2022-09-27T09:12:47.902Z,9.70
2022-09-27T09:15:55.968Z,9.77
2022-09-27T09:18:39.988Z,10.10
2022-09-27T09:21:24.798Z,9.60
2022-09-27T09:24:15.630Z,9.50
2022-09-27T09:26:57.343Z,9.40
2022-09-27T09:29:51.862Z,9.47
2022-09-27T09:32:34.547Z,9.30
2022-09-27T09:35:08.477Z,9.37
2022-09-27T09:37:42.499Z,9.27
2022-09-27T09:40:23.179Z,9.30
2022-09-27T09:43:01.816Z,9.80
2022-09-27T09:45:34.343Z,9.33
2022-09-27T09:48:15.334Z,9.17
2022-09-27T09:50:48.562Z,9.40
2022-09-27T09:53:25.229Z,9.50
2022-09-27T09:55:58.815Z,9.50
2022-09-27T09:58:33.786Z,9.50
2022-09-27T10:01:24.806Z,9.20
2022-09-27T10:03:55.359Z,9.67
2022-09-27T10:06:26.142Z,9.50
2022-09-27T10:08:55.928Z,9.70
2022-09-27T10:11:38.844Z,9.40
2022-09-27T10:14:17.698Z,9.57
2022-09-27T10:16:49.733Z,9.30
2022-09-27T10:19:26.464Z,9.47
2022-09-27T10:22:00.188Z,9.40
2022-09-27T10:24:28.794Z,9.60
2022-09-27T10:27:05.891Z,9.60
2022-09-27T10:29:39.842Z,9.90
2022-09-27T10:32:27.372Z,9.77
2022-09-27T10:35:38.303Z,9.70
2022-09-27T10:38:25.416Z,9.67
2022-09-27T10:41:17.780Z,9.77
2022-09-27T10:43:46.566Z,9.77
2022-09-27T10:46:33.058Z,9.40
2022-09-27T10:49:25.275Z,9.77
2022-09-27T10:51:57.719Z,9.87
2022-09-27T10:54:29.194Z,9.30
2022-09-27T10:57:04.984Z,9.73
2022-09-27T10:59:36.484Z,9.23
2022-09-27T11:02:08.108Z,9.47
2022-09-27T11:04:41.049Z,9.20
2022-09-27T11:07:21.043Z,9.77
2022-09-27T11:10:28.026Z,9.83
2022-09-27T11:13:14.356Z,9.70
2022-09-27T11:16:05.620Z,9.73
2022-09-27T11:18:47.198Z,9.70
2022-09-27T11:21:27.523Z,9.63
2022-09-27T11:24:26.491Z,9.70
2022-09-27T11:27:08.434Z,9.70
2022-09-27T11:29:51.901Z,9.13
2022-09-27T11:33:07.011Z,9.60
2022-09-27T11:35:57.014Z,9.73
2022-09-27T11:38:51.631Z,9.50
2022-09-27T11:41:50.836Z,9.63
2022-09-27T11:44:45.466Z,10.00
2022-09-27T11:47:22.030Z,9.70
2022-09-27T11:50:23.098Z,9.90
2022-09-27T11:53:10.561Z,9.53
2022-09-27T11:55:51.927Z,10.00
2022-09-27T11:58:30.987Z,9.53
2022-09-27T12:01:25.616Z,9.30
2022-09-27T12:04:31.679Z,9.20
2022-09-27T12:07:09.924Z,9.70
2022-09-27T12:09:44.648Z,9.60
2022-09-27T12:12:19.566Z,9.70
2022-09-27T12:14:53.265Z,9.53
2022-09-27T12:17:28.057Z,9.20
2022-09-27T12:20:23.365Z,9.30
2022-09-27T12:23:03.101Z,9.30
2022-09-27T12:25:57.185Z,9.93
2022-09-27T12:28:39.427Z,9.17
2022-09-27T12:31:29.006Z,9.20
2022-09-27T12:34:20.084Z,9.50
2022-09-27T12:37:01.991Z,9.60
2022-09-27T12:39:43.048Z,9.40
2022-09-27T12:42:32.871Z,9.47
2022-09-27T12:45:11.508Z,9.40
2022-09-27T12:48:03.883Z,9.77
2022-09-27T12:50:38.097Z,9.50
2022-09-27T12:53:20.441Z,9.50
2022-09-27T12:56:23.395Z,9.27
2022-09-27T12:59:17.569Z,9.10
2022-09-27T13:02:15.302Z,9.00
2022-09-27T13:05:12.622Z,9.20
2022-09-27T13:08:09.099Z,9.33
2022-09-27T13:10:58.308Z,9.83
2022-09-27T13:13:36.557Z,9.80
2022-09-27T13:16:09.226Z,9.73
2022-09-27T13:18:56.122Z,9.60
2022-09-27T13:21:58.444Z,9.60
2022-09-27T13:24:53.065Z,9.67
2022-09-27T13:27:53.090Z,9.30
2022-09-27T13:30:48.783Z,9.60
2022-09-27T13:33:45.348Z,9.40
2022-09-27T13:36:35.528Z,9.90
2022-09-27T13:39:21.290Z,9.50
2022-09-27T13:42:31.865Z,9.60
2022-09-27T13:45:29.304Z,9.43
2022-09-27T13:48:00.448Z,9.63
2022-09-27T13:50:48.496Z,9.63
2022-09-27T13:53:29.161Z,9.43
2022-09-27T13:55:58.297Z,9.87
2022-09-27T13:58:52.549Z,9.60
2022-09-27T14:01:51.661Z,9.53
2022-09-27T14:04:28.737Z,9.53
2022-09-27T14:07:01.717Z,9.57
2022-09-27T14:09:34.320Z,9.40
2022-09-27T14:12:13.527Z,9.67
2022-09-27T14:14:43.927Z,9.43
2022-09-27T14:17:12.853Z,9.57
2022-09-27T14:19:45.016Z,9.60
2022-09-27T14:22:18.003Z,9.70
2022-09-27T14:24:55.981Z,9.50
2022-09-27T14:27:38.801Z,9.90
2022-09-27T14:30:28.876Z,9.23
2022-09-27T14:33:32.503Z,9.67
2022-09-27T14:36:26.401Z,9.80
2022-09-27T14:38:59.788Z,9.73
2022-09-27T14:41:38.569Z,9.30
2022-09-27T14:44:16.757Z,9.50
2022-09-27T14:46:46.304Z,9.60
2022-09-27T14:49:26.132Z,9.90
2022-09-27T14:51:56.281Z,9.40
2022-09-27T14:54:30.614Z,9.50
2022-09-27T14:57:00.996Z,9.50
2022-09-27T14:59:32.310Z,9.80
2022-09-27T15:02:04.331Z,9.20
2022-09-27T15:04:33.852Z,9.70
2022-09-27T15:07:03.603Z,9.50
2022-09-27T15:09:33.793Z,9.70
2022-09-27T15:12:05.243Z,9.77
2022-09-27T15:14:37.611Z,9.50
2022-09-27T15:17:26.781Z,9.77
2022-09-27T15:20:00.628Z,9.83
2022-09-27T15:22:38.665Z,9.50
2022-09-27T15:25:22.472Z,9.70
2022-09-27T15:27:54.526Z,9.93
2022-09-27T15:30:30.059Z,10.20
2022-09-27T15:32:59.016Z,10.47
2022-09-27T15:35:33.267Z,10.00
2022-09-27T15:38:26.918Z,9.90
2022-09-27T15:41:14.104Z,10.50
2022-09-27T15:43:46.652Z,10.10
2022-09-27T15:46:34.661Z,10.30
2022-09-27T15:49:24.672Z,9.80
2022-09-27T15:51:55.271Z,10.27
2022-09-27T15:54:27.187Z,9.90
2022-09-27T15:56:59.577Z,10.13
2022-09-27T15:59:30.597Z,10.00
2022-09-27T16:02:07.580Z,9.97
2022-09-27T16:04:36.526Z,10.27
2022-09-27T16:07:09.071Z,9.97
2022-09-27T16:09:38.180Z,10.50
2022-09-27T16:12:08.021Z,10.43
2022-09-27T16:14:36.342Z,10.53
2022-09-27T16:17:04.775Z,10.50
2022-09-27T16:19:33.164Z,10.40
2022-09-27T16:22:03.608Z,10.40
2022-09-27T16:24:32.366Z,9.80
2022-09-27T16:27:00.916Z,9.87
2022-09-27T16:29:30.661Z,10.10
2022-09-27T16:31:59.235Z,10.30
2022-09-27T16:34:28.445Z,10.03
2022-09-27T16:36:56.855Z,10.47
2022-09-27T16:39:25.288Z,10.50
2022-09-27T16:41:54.751Z,9.80
2022-09-27T16:44:23.256Z,10.10
2022-09-27T16:46:53.060Z,10.57
2022-09-27T16:49:38.884Z,9.90
2022-09-27T16:52:07.299Z,10.70
2022-09-27T16:54:35.644Z,10.03
2022-09-27T16:57:04.065Z,10.47
2022-09-27T16:59:32.519Z,10.30
2022-09-27T17:02:05.638Z,10.50
2022-09-27T17:04:34.074Z,10.67
2022-09-27T17:07:02.439Z,10.37
2022-09-27T17:09:30.773Z,10.27
2022-09-27T17:11:59.183Z,10.43
2022-09-27T17:14:27.826Z,10.30
2022-09-27T17:16:56.157Z,10.50
2022-09-27T17:19:25.980Z,10.60
2022-09-27T17:21:55.830Z,10.70
2022-09-27T17:24:24.412Z,10.10
2022-09-27T17:26:53.162Z,10.23
2022-09-27T17:29:21.482Z,11.00
2022-09-27T17:31:49.880Z,10.50
2022-09-27T17:34:18.679Z,10.30
2022-09-27T17:36:51.584Z,10.50
2022-09-27T17:39:22.478Z,10.80
2022-09-27T17:41:51.266Z,10.00
2022-09-27T17:44:20.364Z,10.47
2022-09-27T17:47:09.016Z,9.93
2022-09-27T17:49:54.945Z,10.10
2022-09-27T17:52:26.771Z,10.10
2022-09-27T17:54:57.528Z,10.53
2022-09-27T17:57:26.082Z,10.07
2022-09-27T17:59:54.646Z,9.90
2022-09-27T18:02:23.135Z,10.50
2022-09-27T18:04:51.513Z,10.43
2022-09-27T18:07:20.089Z,10.20
2022-09-27T18:09:51.128Z,10.37
2022-09-27T18:12:19.527Z,10.20
2022-09-27T18:14:47.863Z,10.03
2022-09-27T18:17:16.767Z,10.30
2022-09-27T18:19:45.186Z,10.63
2022-09-27T18:22:13.491Z,10.40
2022-09-27T18:24:41.830Z,10.80
2022-09-27T18:27:15.724Z,10.50
2022-09-27T18:29:44.255Z,11.60
2022-09-27T18:32:12.648Z,11.83
2022-09-27T18:34:41.012Z,11.20
2022-09-27T18:37:09.395Z,10.93
2022-09-27T18:39:37.848Z,10.70
2022-09-27T18:42:06.592Z,11.50
2022-09-27T18:44:36.276Z,11.10
2022-09-27T18:47:05.148Z,11.23
2022-09-27T18:49:34.314Z,10.93
2022-09-27T18:52:03.568Z,11.50
2022-09-27T18:54:31.998Z,11.00
2022-09-27T18:57:00.318Z,10.80
2022-09-27T18:59:29.440Z,11.13
2022-09-27T19:01:59.219Z,12.20
2022-09-27T19:04:27.653Z,14.77
2022-09-27T19:06:57.754Z,69.33
2022-09-27T19:09:27.321Z,48.73
2022-09-27T19:11:55.762Z,36.57
2022-09-27T19:14:24.659Z,27.60
2022-09-27T19:16:53.036Z,24.97
2022-09-27T19:19:22.806Z,21.50
2022-09-27T19:21:51.288Z,21.07
2022-09-27T19:24:19.806Z,18.63
2022-09-27T19:26:49.958Z,16.50
2022-09-27T19:29:18.449Z,16.00
2022-09-27T19:31:46.939Z,16.30
2022-09-27T19:34:16.020Z,13.50
2022-09-27T19:36:45.736Z,12.80
2022-09-27T19:39:14.223Z,12.27
2022-09-27T19:41:42.588Z,11.80
2022-09-27T19:44:11.050Z,12.30
2022-09-27T19:46:39.716Z,11.50
2022-09-27T19:49:08.079Z,11.77
2022-09-27T19:51:37.367Z,16.40
2022-09-27T19:54:07.429Z,10.90
2022-09-27T19:56:35.947Z,10.67
2022-09-27T19:59:07.252Z,11.17
2022-09-27T20:01:36.631Z,11.07
2022-09-27T20:04:05.143Z,10.53
2022-09-27T20:06:34.541Z,11.17
2022-09-27T20:09:04.160Z,11.00
2022-09-27T20:11:34.782Z,10.83
2022-09-27T20:14:03.234Z,10.70
2022-09-27T20:16:32.537Z,10.43
2022-09-27T20:19:02.378Z,10.13
2022-09-27T20:21:34.097Z,10.17
2022-09-27T20:24:04.333Z,10.33
2022-09-27T20:26:36.586Z,10.53
2022-09-27T20:29:07.393Z,10.07
2022-09-27T20:31:38.335Z,10.23
2022-09-27T20:34:09.304Z,10.10
2022-09-27T20:36:39.919Z,10.77
2022-09-27T20:39:10.394Z,10.17
2022-09-27T20:41:42.427Z,10.80
2022-09-27T20:44:13.630Z,10.70
2022-09-27T20:46:44.176Z,10.70
2022-09-27T20:49:14.863Z,10.50
2022-09-27T20:51:45.300Z,10.30
2022-09-27T20:54:14.436Z,10.13
2022-09-27T20:56:47.023Z,10.43
2022-09-27T20:59:18.398Z,10.50
2022-09-27T21:01:49.871Z,10.43
2022-09-27T21:04:20.220Z,10.40
2022-09-27T21:06:48.787Z,10.40
2022-09-27T21:09:19.084Z,10.60
2022-09-27T21:11:51.731Z,10.43
2022-09-27T21:14:20.634Z,10.40
2022-09-27T21:16:49.033Z,10.57
2022-09-27T21:19:17.886Z,11.93
2022-09-27T21:21:46.633Z,10.30
2022-09-27T21:24:15.211Z,10.07
2022-09-27T21:26:43.551Z,10.80
2022-09-27T21:29:15.145Z,10.77
2022-09-27T21:31:43.697Z,11.07
2022-09-27T21:34:12.195Z,10.83
2022-09-27T21:36:40.804Z,10.93
2022-09-27T21:39:10.649Z,10.43
2022-09-27T21:41:39.886Z,10.67
2022-09-27T21:44:09.471Z,10.90
2022-09-27T21:46:41.378Z,10.50
2022-09-27T21:49:11.167Z,10.33
2022-09-27T21:51:41.668Z,10.70
2022-09-27T21:54:14.412Z,10.60
2022-09-27T21:56:44.294Z,10.23
2022-09-27T21:59:15.651Z,10.77
2022-09-27T22:01:47.053Z,10.60
2022-09-27T22:04:15.720Z,11.13
2022-09-27T22:06:45.015Z,10.50
2022-09-27T22:09:17.167Z,10.57
2022-09-27T22:11:47.639Z,10.27
2022-09-27T22:14:18.194Z,10.60
2022-09-27T22:16:48.349Z,10.80
2022-09-27T22:19:17.495Z,10.53
2022-09-27T22:21:45.994Z,10.87
2022-09-27T22:24:16.562Z,10.60
2022-09-27T22:26:49.765Z,10.53
2022-09-27T22:29:18.557Z,11.23
2022-09-27T22:31:48.712Z,10.10
2022-09-27T22:34:28.930Z,10.30
2022-09-27T22:36:59.315Z,10.33
2022-09-27T22:39:27.851Z,10.10
2022-09-27T22:41:56.235Z,10.50
2022-09-27T22:44:24.804Z,10.80
2022-09-27T22:46:54.495Z,10.83
2022-09-27T22:49:23.315Z,10.10
2022-09-27T22:51:51.716Z,10.93
2022-09-27T22:54:20.463Z,10.50
2022-09-27T22:56:57.141Z,10.17
2022-09-27T22:59:26.582Z,10.23
2022-09-27T23:01:56.995Z,10.50
2022-09-27T23:04:25.531Z,10.33
2022-09-27T23:06:53.960Z,10.17
2022-09-27T23:09:22.355Z,10.40
2022-09-27T23:11:50.743Z,10.37
2022-09-27T23:14:21.591Z,10.13
2022-09-27T23:16:50.084Z,10.77
2022-09-27T23:19:22.150Z,10.40
2022-09-27T23:21:50.655Z,10.60
2022-09-27T23:24:19.110Z,10.07
2022-09-27T23:27:08.010Z,10.23
2022-09-27T23:29:36.447Z,10.20
2022-09-27T23:32:05.496Z,9.90
2022-09-27T23:34:35.191Z,10.43
2022-09-27T23:37:03.608Z,9.90
2022-09-27T23:39:31.934Z,10.20
2022-09-27T23:42:00.235Z,10.23
2022-09-27T23:44:29.307Z,10.47
2022-09-27T23:47:00.392Z,10.53
2022-09-27T23:49:29.524Z,11.20
2022-09-27T23:52:00.735Z,9.50
2022-09-27T23:54:29.293Z,10.10
2022-09-27T23:56:57.719Z,9.77
2022-09-27T23:59:27.895Z,10.17
